Terminal Aerodrome Forecast
Issued by NWS Louisville, KY

Home | Current Version | Previous Version | Text Only | Print | Product List | Glossary On
Versions: 1 2 3 4 5 6 7 8 9 10 11 12
000
FTUS43 KLMK 221700
TAFBWG
TAF
KBWG 221731Z 2218/2318 19013G22KT P6SM BKN080
     FM222300 17009KT P6SM BKN060
     FM230600 17008KT P6SM BKN050 WS020/20040KT
     FM231500 15012G17KT P6SM VCSH BKN025=

USA.gov is the U.S. government's official web portal to all federal, state and local government web resources and services.